Stations météo

réclame
Mon MeteoGroup
Fyvie castle, Grande-Bretagne (99010): Température de l'air & dewpoint: 21.05.2020 17:00:00 - 27.05.2020 17:00:00 (BST)Fyvie castle, Grande-Bretagne (99010): Quantités de précipitations: 21.05.2020 17:00:00 - 27.05.2020 17:00:00 (BST)
Date & Time tt [°C] td [°C] rr [mm]
27.05.2020 17:00:00 15,6 6,0 0,0
27.05.2020 16:00:00 15,8 7,2 0,0
27.05.2020 15:00:00 16,1 4,6 0,0
27.05.2020 14:00:00 15,6 4,4 0,0
27.05.2020 13:00:00 15,0 5,0 0,0
27.05.2020 12:00:00 15,7 5,0 0,0
27.05.2020 11:00:00 14,8 5,7 0,0
27.05.2020 10:00:00 13,2 5,8 0,0
27.05.2020 09:00:00 10,7 5,7 0,0
27.05.2020 08:00:00 9,9 5,9 0,0
27.05.2020 07:00:00 8,2 6,6 0,0
27.05.2020 06:00:00 6,6 6,5 0,0
27.05.2020 05:00:00 5,9 5,8 0,0
27.05.2020 04:00:00 5,3 5,3 0,0
27.05.2020 03:00:00 4,7 4,6 0,0
27.05.2020 02:00:00 4,2 3,8 0,0
27.05.2020 01:00:00 4,7 3,9 0,0
27.05.2020 00:00:00 6,0 4,8 0,0
26.05.2020 23:00:00 7,1 5,1 0,0
26.05.2020 22:00:00 9,3 5,6 0,0
26.05.2020 21:00:00 12,1 6,5 0,0
26.05.2020 20:00:00 13,6 6,7 0,0
26.05.2020 19:00:00 13,5 6,0 0,0
26.05.2020 18:00:00 14,4 6,6 0,0
26.05.2020 17:00:00 14,9 6,4 0,0
26.05.2020 16:00:00 16,9 8,1 0,0
26.05.2020 15:00:00 18,8 4,5 0,0
26.05.2020 14:00:00 18,0 5,0 0,0
26.05.2020 13:00:00 17,6 5,4 0,0
26.05.2020 12:00:00 17,0 5,7 0,0
26.05.2020 11:00:00 16,0 5,7 0,0
26.05.2020 10:00:00 14,6 4,9 0,0
26.05.2020 09:00:00 13,4 4,9 0,0
26.05.2020 08:00:00 12,1 4,7 0,0
26.05.2020 07:00:00 10,9 9,2 0,0
26.05.2020 06:00:00 6,8 6,5 0,0
26.05.2020 05:00:00 7,5 7,3 0,0
26.05.2020 04:00:00 6,8 6,3 0,0
26.05.2020 03:00:00 8,0 7,4 0,0
26.05.2020 02:00:00 8,0 7,4 0,0
26.05.2020 01:00:00 8,3 7,1 0,0
26.05.2020 00:00:00 9,1 7,2 0,0
25.05.2020 23:00:00 10,8 7,2 0,0
25.05.2020 22:00:00 13,0 7,8 0,0
25.05.2020 21:00:00 16,2 7,1 0,0
25.05.2020 20:00:00 16,4 6,8 0,0
25.05.2020 19:00:00 17,2 9,0 0,0
25.05.2020 18:00:00 18,2 8,4 0,0
25.05.2020 17:00:00 18,9 6,6 0,0
25.05.2020 16:00:00 19,5 7,7 0,0
25.05.2020 15:00:00 18,3 10,1 0,0
25.05.2020 14:00:00 18,1 9,3 0,0
25.05.2020 13:00:00 18,3 9,1 0,0
25.05.2020 12:00:00 18,2 7,9 0,0
25.05.2020 11:00:00 16,9 6,9 0,0
25.05.2020 10:00:00 15,3 6,9 0,0
25.05.2020 09:00:00 13,7 7,5 0,0
25.05.2020 08:00:00 9,7 8,4 0,0
25.05.2020 07:00:00 6,2 6,2 0,0
25.05.2020 06:00:00 3,3 3,3 0,0
25.05.2020 05:00:00 3,1 2,8 0,0
25.05.2020 04:00:00 3,6 3,2 0,0
25.05.2020 03:00:00 4,5 3,9 0,0
25.05.2020 02:00:00 5,3 4,4 0,0
25.05.2020 01:00:00 6,9 5,1 0,0
25.05.2020 00:00:00 8,3 5,6 0,0
24.05.2020 23:00:00 10,8 6,5 0,0
24.05.2020 22:00:00 11,6 6,9 0,0
24.05.2020 21:00:00 13,9 7,8 0,0
24.05.2020 20:00:00 15,3 8,6 0,0
24.05.2020 19:00:00 15,1 8,7 0,0
24.05.2020 18:00:00 15,4 9,4 0,0
24.05.2020 17:00:00 15,2 10,2 0,0
24.05.2020 16:00:00 16,3 10,4 0,0
24.05.2020 15:00:00 14,1 9,7 0,0
24.05.2020 14:00:00 14,2 10,2 0,0
24.05.2020 13:00:00 12,7 9,1 0,0
24.05.2020 12:00:00 13,7 8,9 0,0
24.05.2020 11:00:00 13,5 8,1 0,0
24.05.2020 10:00:00 13,5 7,3 0,0
24.05.2020 09:00:00 13,2 6,0 0,0
24.05.2020 08:00:00 12,1 5,4 0,0
24.05.2020 07:00:00 11,0 4,8 0,0
24.05.2020 06:00:00 10,1 4,0 0,0
24.05.2020 05:00:00 10,4 3,8 0,0
24.05.2020 04:00:00 10,5 4,1 0,0
24.05.2020 03:00:00 10,3 4,4 0,0
24.05.2020 02:00:00 10,5 4,0 0,0
24.05.2020 01:00:00 10,6 3,9 0,0
24.05.2020 00:00:00 10,8 4,0 0,0
23.05.2020 23:00:00 10,7 3,6 0,0
23.05.2020 22:00:00 10,8 3,2 0,0
23.05.2020 21:00:00 11,6 3,9 0,0
23.05.2020 20:00:00 12,6 5,8 0,0
23.05.2020 19:00:00 13,5 5,0 0,0
23.05.2020 18:00:00 14,4 5,7 0,0
23.05.2020 17:00:00 14,7 5,9 0,0
23.05.2020 16:00:00 14,4 6,5 0,0
23.05.2020 15:00:00 13,9 7,2 0,0
23.05.2020 14:00:00 14,5 6,2 0,0
23.05.2020 13:00:00 14,7 6,0 0,0
23.05.2020 12:00:00 12,9 8,1 0,0
23.05.2020 11:00:00 12,6 5,9 0,0
23.05.2020 10:00:00 11,6 4,6 0,0
23.05.2020 09:00:00 10,5 4,0 0,0
23.05.2020 08:00:00 10,3 3,7 0,0
23.05.2020 07:00:00 10,2 4,0 0,0
23.05.2020 06:00:00 9,7 4,5 0,0
23.05.2020 05:00:00 9,4 4,0 0,0
23.05.2020 04:00:00 9,7 3,6 0,0
23.05.2020 03:00:00 9,9 3,9 0,0
23.05.2020 02:00:00 10,0 3,3 0,0
23.05.2020 01:00:00 10,4 3,6 0,0
23.05.2020 00:00:00 11,0 2,1 0,0
22.05.2020 23:00:00 12,0 2,7 0,0
22.05.2020 22:00:00 12,2 3,0 0,0
22.05.2020 21:00:00 12,9 5,2 0,0
22.05.2020 20:00:00 13,4 5,9 0,0
22.05.2020 19:00:00 12,7 7,5 0,0
22.05.2020 18:00:00 14,2 6,9 0,0
22.05.2020 17:00:00 14,3 6,7 0,0
22.05.2020 16:00:00 15,0 7,4 0,0
22.05.2020 15:00:00 15,0 7,7 0,0
22.05.2020 14:00:00 14,0 7,3 0,0
22.05.2020 13:00:00 14,5 6,7 0,0
22.05.2020 12:00:00 15,7 6,6 0,0
22.05.2020 11:00:00 16,0 6,9 0,0
22.05.2020 10:00:00 15,0 9,2 0,0
22.05.2020 09:00:00 11,9 11,3 0,0
22.05.2020 08:00:00 11,2 10,7 0,0
22.05.2020 07:00:00 10,5 10,0 0,0
22.05.2020 06:00:00 10,5 9,7 0,0
22.05.2020 05:00:00 9,9 9,1 0,0
22.05.2020 04:00:00 9,5 9,0 0,0
22.05.2020 03:00:00 9,6 9,4 0,0
22.05.2020 02:00:00 9,4 9,3 0,0
22.05.2020 01:00:00 8,5 8,2 0,0
22.05.2020 00:00:00 8,6 7,9 0,0
21.05.2020 23:00:00 9,5 8,5 0,0
21.05.2020 22:00:00 9,7 7,9 0,0
21.05.2020 21:00:00 11,6 8,0 0,0
21.05.2020 20:00:00 13,6 7,9 0,0
21.05.2020 19:00:00 14,2 8,1 0,0
21.05.2020 18:00:00 14,8 8,6 0,0
21.05.2020 17:00:00 14,2 7,9 0,0

tt = Température de l'air
td = dewpoint
rr = Quantités de précipitations

stations d'obs. à proximité